Aérodrome :
LOGIN :

S'inscrire | Disclaimer

   EN    FR    IT 

 










Légende :    VFR   VFR Marginal   IFR   IFR Intensif   IFR Très Intensif
Visi : 
Plafond : 
>= 8 km
>= 3000ft
5 à 8 km
1000 à 3000 ft
1500m à 5 km
500 à 1000 ft
800 à 1500m
200 à 500 ft
< 800m
< 200 ft
Symboles :   Orages  Brouillard  Fortes neiges  Fortes précipitations  Vent > 20 kt
SIGMETs :   Divers  Orages  Givrage  Turbulence  Onde Orograph.  Cendres Volcan.







- Altitude de l'aérodrome : 1455 ft


ETIH - Hohenfels Army Air Field

DERNIER METAR :
  • 112318Z AUTO 27008KT 9999 -RA SCT014 OVC022 02/02 A3012 RMK AO2 CIG 014V022 SLP222 $

METARs EXPIRÉS :
  • 112256Z AUTO 29009KT 9999 -RA BKN015 BKN021 OVC038 02/02 A3012 RMK AO2 RAB53 SLP222 P0000 T00190018 400260013 $
  • 112250Z AUTO 28006KT 9999 BKN015 BKN021 OVC038 02/02 A3012 RMK AO2 CIG 013V019 SLP222 $
  • 112212Z AUTO 28008KT 9999 BKN014 OVC020 02/02 A3011 RMK AO2 CIG 014V021 BKN V SCT SLP218 $
  • 112156Z AUTO 28007KT 9999 SCT014 OVC021 02/02 A3011 RMK AO2 RAE2057RAB36E47 SLP218 P0000 T00180017 $
  • 112147Z AUTO 27010KT 9999 SCT014 BKN020 OVC027 02/02 A3011 RMK AO2 RAE2057RAB36E47 CIG 012V020 SLP218 $
  • 112136Z AUTO 28007KT 9999 -RA BKN012 BKN021 OVC029 02/02 A3012 RMK AO2 RAE2057RAB36 CIG 012V019 BKN012 V SCT SLP222 $
  • 112107Z AUTO 27009G15KT 9999 BKN013 BKN019 OVC026 02/02 A3011 RMK AO2 RAE2057 SLP218 $
  • 112104Z AUTO 27007G15KT 9999 BKN016 OVC023 02/02 A3011 RMK AO2 RAE2057 CIG 014V021 SLP218 $
  • 112057Z AUTO 26007KT 9999 SCT013 BKN021 OVC028 02/02 A3012 RMK AO2 RAE57 CIG 014V021 BKN V OVC SLP222 $
  • 112048Z AUTO 28009KT 9999 -RA BKN014 OVC021 02/02 A3012 RMK AO2 RAB29 SLP222 $
  • 112030Z AUTO 28008KT 9999 -RA BKN013 OVC029 02/02 A3011 RMK AO2 RAB29 CIG 013V025 SLP218 $

Prévision TAF périmée.
Pas de NOTAMs connus pour ce terrain.



MET'MAP, la Météo Aéronautique d'un coup d'oeil ! - Copyright ORBIFLY Décembre 2007 - Disclaimer

ORBIFLY MET'MAP TEAM :

Programmation & Développement : Alexandra Zaïnal
Conception & Développement : Baudouin d'Aumeries
Co-Programmation & Développement : Marc-Olivier Méhu
Soutien technique & logistique : Manuel Goepfert

Contact : metmap@orbifly.com




SOURCES & CREDITS :

   NOAA